Time;durP1;ratioP1;P1;durP2;ratioP2;P2;SDS_P1;SDS_P2;PMS_P1;PMS_P2;Temp;Humidity;BMP_temperature;BMP_pressure;BME280_temperature;BME280_humidity;BME280_pressure;Samples;Min_cycle;Max_cycle;Signal;HPM_P1;HPM_P2
2023/03/16 00:04:11;;;;;;;15.23;7.93;;;;;;;13.59;68.77;100047.56;10297614;28;96576;-74
2023/03/16 00:09:16;;;;;;;14.75;8.23;;;;;;;13.44;69.14;100043.97;10325913;28;97069;-74
2023/03/16 00:14:21;;;;;;;18.48;8.57;;;;;;;13.54;69.14;100031.09;10327667;28;96778;-73
2023/03/16 00:19:24;;;;;;;16.73;8.85;;;;;;;13.52;68.92;100033.81;10298143;28;96985;-73
2023/03/16 00:24:29;;;;;;;15.20;8.70;;;;;;;13.47;69.04;100009.44;10297788;28;97507;-73
2023/03/16 00:29:33;;;;;;;13.23;8.00;;;;;;;13.51;68.95;100015.41;10297002;28;96816;-73
2023/03/16 00:34:36;;;;;;;17.37;8.90;;;;;;;13.44;69.36;100027.25;10297978;28;97264;-74
2023/03/16 00:39:41;;;;;;;14.43;8.18;;;;;;;13.18;70.33;100039.25;10297784;28;96848;-73
2023/03/16 00:44:45;;;;;;;13.43;8.10;;;;;;;13.09;70.53;100036.22;10328641;28;98830;-74
2023/03/16 00:49:48;;;;;;;14.48;8.63;;;;;;;12.94;70.87;100024.69;10313934;28;96691;-74
2023/03/16 00:54:52;;;;;;;16.80;8.20;;;;;;;12.91;71.29;100046.00;10295960;28;96569;-74
2023/03/16 00:59:56;;;;;;;16.55;8.07;;;;;;;12.67;71.48;100038.50;10296596;28;96696;-73
2023/03/16 01:05:00;;;;;;;14.90;8.40;;;;;;;12.77;71.53;100048.50;10296933;28;97688;-74
2023/03/16 01:10:06;;;;;;;17.45;8.25;;;;;;;12.89;71.11;100034.66;10316712;28;97130;-74
2023/03/16 01:15:10;;;;;;;17.23;8.23;;;;;;;13.06;70.63;100029.34;10337509;28;96908;-74
2023/03/16 01:20:18;;;;;;;16.30;8.47;;;;;;;12.89;71.11;100013.53;10336840;28;96799;-74
2023/03/16 01:25:23;;;;;;;17.27;8.43;;;;;;;12.78;71.02;100028.22;10300391;28;96720;-73
2023/03/16 01:30:26;;;;;;;16.90;8.65;;;;;;;12.58;72.07;100024.78;10295877;28;97225;-73
2023/03/16 01:35:30;;;;;;;13.60;7.17;;;;;;;12.62;71.74;100014.91;10295723;28;96899;-74
2023/03/16 01:40:36;;;;;;;14.32;8.35;;;;;;;12.53;71.36;100016.25;10331982;28;96678;-74
2023/03/16 01:46:16;;;;;;;17.13;8.93;;;;;;;12.47;72.04;100032.41;10335376;28;96658;-73
2023/03/16 01:51:23;;;;;;;17.90;9.15;;;;;;;12.40;72.84;100027.50;10336268;28;96642;-73
2023/03/16 01:56:34;;;;;;;13.05;8.63;;;;;;;12.35;71.78;100024.25;10334987;28;96790;-74
2023/03/16 02:01:38;;;;;;;13.60;8.52;;;;;;;12.31;72.77;100028.84;10336399;28;96662;-73
2023/03/16 02:06:41;;;;;;;15.20;8.43;;;;;;;12.36;72.32;100010.13;10335355;28;97465;-74
2023/03/16 02:11:47;;;;;;;16.40;8.98;;;;;;;12.37;71.82;100006.56;10335573;28;96814;-73
2023/03/16 02:16:51;;;;;;;16.98;9.07;;;;;;;12.15;72.74;99992.75;10335006;28;97029;-74
2023/03/16 02:22:01;;;;;;;16.63;8.57;;;;;;;12.09;73.37;99987.78;10335424;28;96563;-74
2023/03/16 02:27:09;;;;;;;16.40;8.35;;;;;;;12.10;73.72;99978.94;10334332;28;96874;-74
2023/03/16 02:32:15;;;;;;;15.43;8.73;;;;;;;12.02;73.32;99984.59;10334022;28;96470;-74
2023/03/16 02:37:18;;;;;;;16.20;8.43;;;;;;;12.10;73.23;99984.22;10333466;28;96643;-74
2023/03/16 02:42:25;;;;;;;16.70;8.30;;;;;;;12.09;73.40;99982.50;10334524;28;97013;-74
2023/03/16 02:47:34;;;;;;;15.02;8.65;;;;;;;12.16;72.46;99968.94;10321330;28;96758;-74
2023/03/16 02:52:39;;;;;;;14.27;8.60;;;;;;;12.19;72.33;99950.31;10292782;28;96765;-74
2023/03/16 02:57:43;;;;;;;17.98;8.63;;;;;;;12.00;73.13;99930.22;10293548;28;96834;-74
2023/03/16 03:02:47;;;;;;;13.98;8.20;;;;;;;11.89;73.39;99917.56;10292832;28;96758;-74
2023/03/16 03:07:51;;;;;;;17.95;8.60;;;;;;;12.00;73.27;99907.34;10295908;28;96791;-74
2023/03/16 03:12:54;;;;;;;13.20;7.90;;;;;;;11.79;73.36;99908.41;10334475;28;96583;-74
2023/03/16 03:17:58;;;;;;;13.13;8.20;;;;;;;11.59;74.27;99910.34;10333235;28;97246;-74
2023/03/16 03:23:02;;;;;;;16.80;8.52;;;;;;;11.74;74.50;99906.94;10307105;28;96735;-74
2023/03/16 03:28:06;;;;;;;12.65;8.32;;;;;;;11.68;73.81;99909.88;10290725;28;97201;-74
2023/03/16 03:33:11;;;;;;;18.55;8.50;;;;;;;11.84;73.47;99895.03;10290876;28;96578;-74
2023/03/16 03:38:14;;;;;;;14.95;8.82;;;;;;;11.66;74.66;99893.28;10293278;28;98005;-74
2023/03/16 03:43:18;;;;;;;12.88;7.88;;;;;;;11.63;73.70;99899.56;10332589;28;96731;-74
2023/03/16 03:48:22;;;;;;;16.73;8.40;;;;;;;11.74;73.73;99902.53;10332491;28;96601;-74
2023/03/16 03:53:25;;;;;;;13.00;7.57;;;;;;;11.48;74.42;99886.28;10332737;28;96948;-74
2023/03/16 03:58:28;;;;;;;15.38;8.50;;;;;;;11.49;74.75;99888.88;10294812;28;96708;-74
2023/03/16 04:03:33;;;;;;;14.73;8.20;;;;;;;11.31;75.44;99890.59;10292244;28;97591;-74
2023/03/16 04:08:37;;;;;;;17.92;8.07;;;;;;;11.19;75.53;99872.78;10291107;28;97123;-74
2023/03/16 04:13:40;;;;;;;14.35;8.27;;;;;;;11.36;74.77;99878.06;10302809;28;96702;-73
2023/03/16 04:18:45;;;;;;;14.50;8.15;;;;;;;11.20;75.52;99869.19;10290058;28;96880;-74
2023/03/16 04:23:48;;;;;;;14.90;8.13;;;;;;;11.18;75.14;99871.03;10291055;28;96592;-73
2023/03/16 04:28:52;;;;;;;15.88;8.05;;;;;;;11.37;75.01;99865.75;10290951;28;96620;-74
2023/03/16 04:33:57;;;;;;;14.68;7.70;;;;;;;11.42;75.16;99858.47;10290391;28;96696;-74
2023/03/16 04:39:01;;;;;;;16.17;7.70;;;;;;;11.14;75.51;99861.59;10298105;28;96699;-74
2023/03/16 04:44:04;;;;;;;12.18;7.57;;;;;;;10.98;76.54;99857.97;10332534;28;96850;-74
2023/03/16 04:49:09;;;;;;;19.08;7.80;;;;;;;10.98;76.31;99849.19;10337367;28;96687;-74
2023/03/16 04:54:12;;;;;;;;;;;;;;;10.80;78.52;99837.75;10339447;28;96761;-74
2023/03/16 04:59:15;;;;;;;13.95;7.30;;;;;;;10.99;76.74;99862.28;10338169;28;96617;-74
2023/03/16 05:04:20;;;;;;;14.30;8.18;;;;;;;10.85;77.30;99851.53;10337612;28;96836;-74
2023/03/16 05:09:24;;;;;;;15.25;7.65;;;;;;;11.19;75.84;99842.94;10336375;28;96718;-74
2023/03/16 05:14:27;;;;;;;16.15;8.05;;;;;;;10.87;76.63;99854.97;10296346;28;96540;-74
2023/03/16 05:19:32;;;;;;;15.32;8.35;;;;;;;10.81;77.63;99847.38;10301354;28;96705;-74
2023/03/16 05:24:36;;;;;;;13.07;7.68;;;;;;;11.10;76.72;99836.34;10337051;28;96674;-74
2023/03/16 05:29:39;;;;;;;12.82;6.55;;;;;;;11.24;76.13;99825.13;10336353;28;96800;-74
2023/03/16 05:34:44;;;;;;;11.93;6.80;;;;;;;11.33;75.72;99819.41;10336758;28;96713;-74
2023/03/16 05:39:47;;;;;;;13.35;7.22;;;;;;;11.32;76.06;99818.56;10335815;28;96619;-74
2023/03/16 05:44:50;;;;;;;13.63;7.07;;;;;;;11.39;75.47;99814.69;10337117;28;96639;-74
2023/03/16 05:49:55;;;;;;;11.93;6.88;;;;;;;11.34;75.97;99813.19;10336152;28;97218;-74
2023/03/16 05:54:58;;;;;;;10.73;6.63;;;;;;;11.50;75.30;99815.91;10318218;28;96783;-74
2023/03/16 06:00:09;;;;;;;12.35;5.88;;;;;;;11.54;74.56;99812.22;10293282;28;97047;-74
2023/03/16 06:05:15;;;;;;;11.85;6.53;;;;;;;11.48;74.48;99821.28;10294741;28;96591;-74
2023/03/16 06:10:19;;;;;;;12.07;6.97;;;;;;;11.32;75.22;99825.59;10297607;28;97018;-74
2023/03/16 06:15:25;;;;;;;13.55;7.35;;;;;;;11.27;75.54;99820.56;10294308;28;96788;-74
2023/03/16 06:20:30;;;;;;;12.77;6.53;;;;;;;11.27;74.99;99817.06;10294113;28;96475;-74
2023/03/16 06:25:33;;;;;;;10.77;7.18;;;;;;;11.26;75.53;99810.97;10294125;28;96680;-74
2023/03/16 06:30:37;;;;;;;11.48;6.97;;;;;;;11.32;74.49;99818.56;10293769;28;96586;-74
2023/03/16 06:35:41;;;;;;;9.20;6.00;;;;;;;11.26;74.45;99818.00;10294147;28;97081;-74
2023/03/16 06:40:44;;;;;;;9.82;5.40;;;;;;;11.25;74.98;99824.22;10302274;28;96631;-74
2023/03/16 06:45:48;;;;;;;12.73;6.00;;;;;;;11.31;73.88;99822.13;10318643;28;96614;-74
2023/03/16 06:50:53;;;;;;;14.52;6.22;;;;;;;11.19;74.41;99830.63;10292093;28;96623;-74
2023/03/16 06:55:56;;;;;;;10.07;6.05;;;;;;;11.09;74.83;99836.41;10292785;28;96518;-74
2023/03/16 07:01:02;;;;;;;10.45;6.70;;;;;;;10.92;75.03;99831.91;10293296;28;96776;-74
2023/03/16 07:06:08;;;;;;;10.25;6.63;;;;;;;10.97;75.10;99840.44;10292265;28;96583;-74
2023/03/16 07:11:13;;;;;;;11.32;6.35;;;;;;;10.95;75.67;99842.31;10292661;28;96641;-74
2023/03/16 07:16:16;;;;;;;12.50;6.82;;;;;;;10.82;76.16;99849.06;10332902;28;96739;-74
2023/03/16 07:21:21;;;;;;;13.63;7.32;;;;;;;10.81;76.86;99857.03;10304890;28;96776;-74
2023/03/16 07:26:24;;;;;;;10.75;6.18;;;;;;;10.87;76.21;99872.56;10292722;28;96867;-74
2023/03/16 07:31:28;;;;;;;13.50;6.53;;;;;;;10.90;76.18;99878.53;10291706;28;96655;-74
2023/03/16 07:36:33;;;;;;;13.82;6.93;;;;;;;10.98;76.84;99880.78;10292739;28;96742;-74
2023/03/16 07:41:36;;;;;;;24.10;8.45;;;;;;;10.83;76.63;99887.63;10306649;28;96980;-74
2023/03/16 07:46:40;;;;;;;10.98;7.40;;;;;;;11.05;76.26;99896.22;10332638;28;96563;-74
2023/03/16 07:51:45;;;;;;;11.32;7.30;;;;;;;11.33;75.22;99901.06;10332734;28;96623;-74
2023/03/16 07:56:48;;;;;;;9.93;6.22;;;;;;;11.43;74.87;99904.09;10331577;28;96575;-74
2023/03/16 08:01:52;;;;;;;10.13;6.68;;;;;;;11.70;74.25;99895.69;10332239;28;96642;-74
2023/03/16 08:06:59;;;;;;;13.27;5.68;;;;;;;12.84;72.80;99890.59;10332808;28;96809;-74
2023/03/16 08:12:02;;;;;;;9.15;5.15;;;;;;;13.21;71.61;99896.41;10331174;28;96781;-74
2023/03/16 08:17:07;;;;;;;10.10;5.47;;;;;;;13.26;70.66;99893.53;10332620;28;96719;-74
2023/03/16 08:22:12;;;;;;;9.75;5.40;;;;;;;12.87;71.53;99901.84;10337739;28;96664;-74
2023/03/16 08:27:16;;;;;;;;;;;;;;;13.86;68.38;99905.88;10339055;28;96674;-74
2023/03/16 08:32:19;;;;;;;10.07;4.90;;;;;;;15.10;66.22;99924.72;10338001;28;96795;-75
2023/03/16 08:37:24;;;;;;;6.90;4.65;;;;;;;15.14;65.78;99934.19;10338753;28;97086;-74
2023/03/16 08:42:28;;;;;;;9.80;6.90;;;;;;;15.75;65.16;99931.97;10337830;28;96496;-74
2023/03/16 08:47:31;;;;;;;8.52;5.65;;;;;;;16.28;62.52;99931.88;10299967;28;97616;-74
2023/03/16 08:52:36;;;;;;;8.77;5.50;;;;;;;16.10;61.61;99937.59;10297007;28;96629;-74
2023/03/16 08:57:39;;;;;;;10.45;6.18;;;;;;;15.44;62.25;99935.75;10296680;28;96949;-74
2023/03/16 09:02:44;;;;;;;11.52;6.28;;;;;;;14.71;63.94;99934.19;10297181;28;96796;-74
2023/03/16 09:07:50;;;;;;;17.27;10.13;;;;;;;15.84;61.30;99936.66;10297292;28;96647;-74
2023/03/16 09:12:54;;;;;;;16.77;8.82;;;;;;;17.01;58.79;99946.28;10308665;28;96795;-74
2023/03/16 09:17:59;;;;;;;11.52;7.35;;;;;;;18.38;55.59;99944.03;10336736;28;96679;-75
2023/03/16 09:23:04;;;;;;;10.50;6.60;;;;;;;18.58;55.49;99937.19;10336239;28;97584;-75
2023/03/16 09:28:07;;;;;;;;;;;;;;;18.52;54.45;99945.66;10336799;28;98513;-75
2023/03/16 09:33:10;;;;;;;11.80;6.55;;;;;;;18.79;54.66;99940.84;10337186;28;96735;-74
2023/03/16 09:38:16;;;;;;;10.40;6.47;;;;;;;19.49;52.28;99945.00;10335732;28;96601;-75
2023/03/16 09:43:34;;;;;;;10.88;5.70;;;;;;;19.80;50.79;99940.66;10336493;28;96897;-75
2023/03/16 09:48:39;;;;;;;10.52;6.20;;;;;;;19.06;52.38;99926.19;10336447;28;96921;-74
2023/03/16 09:53:47;;;;;;;8.15;5.90;;;;;;;19.04;52.38;99930.78;10312651;28;96710;-74
2023/03/16 09:58:50;;;;;;;9.18;6.72;;;;;;;19.55;51.79;99915.13;10295341;28;97393;-75
2023/03/16 10:04:09;;;;;;;9.23;6.00;;;;;;;20.93;48.69;99909.56;10294625;28;96714;-75
2023/03/16 10:09:29;;;;;;;9.30;6.18;;;;;;;22.15;45.80;99920.72;10294985;28;96630;-75
2023/03/16 10:14:39;;;;;;;9.20;5.55;;;;;;;22.33;44.31;99931.56;10299359;28;96670;-75
2023/03/16 10:19:48;;;;;;;8.52;5.65;;;;;;;23.79;41.52;99920.00;10335760;28;96630;-75
2023/03/16 10:25:11;;;;;;;7.18;4.85;;;;;;;23.39;40.20;99904.25;10335281;28;96649;-75
2023/03/16 10:30:22;;;;;;;7.13;5.00;;;;;;;24.59;39.29;99903.75;10293560;28;96778;-75
2023/03/16 10:35:41;;;;;;;9.75;6.30;;;;;;;25.33;38.07;99887.88;10293745;28;97032;-72
2023/03/16 10:40:46;;;;;;;11.27;7.38;;;;;;;25.18;38.40;99886.78;10293523;28;96749;-73
2023/03/16 10:45:49;;;;;;;18.58;14.05;;;;;;;25.97;36.49;99881.81;10327873;28;96602;-72
2023/03/16 10:50:57;;;;;;;21.17;15.95;;;;;;;26.26;36.47;99874.06;10335186;28;96715;-72
2023/03/16 10:56:10;;;;;;;38.92;28.15;;;;;;;25.65;37.47;99861.00;10334482;28;96877;-72
2023/03/16 11:01:17;;;;;;;;;;;;;;;26.00;35.78;99849.97;10333694;28;96780;-72
2023/03/16 11:06:23;;;;;;;29.30;22.27;;;;;;;26.79;35.81;99829.28;10333081;28;96589;-72
2023/03/16 11:11:31;;;;;;;23.20;17.90;;;;;;;26.57;36.03;99818.38;10333924;28;96751;-72
2023/03/16 11:16:40;;;;;;;23.75;16.40;;;;;;;25.24;37.40;99826.91;10332629;28;96912;-72
2023/03/16 11:21:53;;;;;;;34.72;24.95;;;;;;;23.47;40.79;99822.94;10333513;28;96798;-75
2023/03/16 11:27:02;;;;;;;29.30;21.85;;;;;;;22.61;41.71;99800.09;10332749;28;96801;-75
2023/03/16 11:32:10;;;;;;;27.90;17.27;;;;;;;23.17;41.84;99785.69;10332704;28;96804;-74
2023/03/16 11:37:32;;;;;;;28.30;18.75;;;;;;;24.12;39.82;99768.75;10332412;28;96734;-75
2023/03/16 11:42:42;;;;;;;28.50;18.02;;;;;;;24.90;39.22;99747.97;10333666;28;96831;-75
2023/03/16 11:48:06;;;;;;;25.85;16.55;;;;;;;26.04;37.13;99751.50;10332689;28;96662;-75
2023/03/16 11:53:17;;;;;;;24.30;16.55;;;;;;;26.17;36.72;99743.75;10305795;28;96966;-72
2023/03/16 11:58:36;;;;;;;22.00;15.45;;;;;;;26.25;36.13;99721.28;10297327;28;96818;-72
2023/03/16 12:04:00;;;;;;;23.75;17.20;;;;;;;27.22;35.76;99710.91;10298541;28;96751;-72
2023/03/16 12:09:18;;;;;;;19.95;14.98;;;;;;;27.33;34.41;99691.59;10299101;28;96774;-72
2023/03/16 12:14:27;;;;;;;22.50;16.30;;;;;;;25.97;36.26;99666.09;10303456;28;96860;-72
2023/03/16 12:19:41;;;;;;;24.95;17.35;;;;;;;23.84;40.25;99664.25;10339045;28;96602;-75
2023/03/16 12:24:47;;;;;;;21.95;15.32;;;;;;;22.91;42.45;99656.78;10338405;28;97056;-74
2023/03/16 12:30:10;;;;;;;21.20;13.77;;;;;;;22.44;44.00;99642.66;10338385;28;96704;-74
2023/03/16 12:35:33;;;;;;;16.73;11.27;;;;;;;21.97;44.16;99641.03;10339400;28;96763;-75
2023/03/16 12:40:43;;;;;;;15.73;10.70;;;;;;;21.95;45.17;99626.94;10339053;28;96762;-74
2023/03/16 12:45:56;;;;;;;18.90;10.98;;;;;;;21.78;46.27;99589.38;10337310;28;97238;-74
2023/03/16 12:51:02;;;;;;;14.05;9.75;;;;;;;22.97;44.18;99558.72;10337255;28;96633;-74
2023/03/16 12:56:08;;;;;;;14.57;9.88;;;;;;;23.57;42.92;99549.75;10338162;28;96733;-75
2023/03/16 13:01:15;;;;;;;11.93;9.00;;;;;;;23.58;42.20;99543.34;10310447;28;96872;-75
2023/03/16 13:06:22;;;;;;;11.85;7.90;;;;;;;22.76;43.87;99545.59;10296261;28;96556;-74
2023/03/16 13:11:26;;;;;;;11.63;7.07;;;;;;;22.53;43.26;99553.25;10296594;28;96852;-74
2023/03/16 13:16:35;;;;;;;14.75;9.23;;;;;;;22.11;44.67;99552.13;10317710;28;96636;-74
2023/03/16 13:21:40;;;;;;;15.48;11.05;;;;;;;22.04;45.67;99556.41;10337684;28;96860;-74
2023/03/16 13:26:46;;;;;;;18.77;11.45;;;;;;;21.96;45.72;99545.56;10337631;28;96836;-74
2023/03/16 13:31:52;;;;;;;20.05;13.73;;;;;;;22.06;45.39;99549.06;10336854;28;96693;-74
2023/03/16 13:36:58;;;;;;;21.45;13.73;;;;;;;22.70;43.64;99540.00;10295979;28;96715;-74
2023/03/16 13:42:03;;;;;;;18.02;11.77;;;;;;;23.16;42.57;99529.00;10294223;28;96995;-74
2023/03/16 13:47:13;;;;;;;20.00;12.13;;;;;;;23.06;42.73;99522.88;10317358;28;96742;-74
2023/03/16 13:52:24;;;;;;;21.67;14.18;;;;;;;22.59;43.31;99517.78;10308374;28;96611;-74
2023/03/16 13:57:29;;;;;;;18.00;12.90;;;;;;;22.17;44.27;99503.31;10294816;28;96578;-74
2023/03/16 17:01:27;;;;;;;12.05;5.05;;;;;;;18.11;61.33;99565.31;10263453;28;98991;-74
2023/03/16 17:06:30;;;;;;;13.32;4.75;;;;;;;18.10;61.90;99556.50;10349516;28;96621;-74
2023/03/16 17:11:34;;;;;;;10.70;5.15;;;;;;;17.99;62.12;99556.50;10378861;28;96631;-74
2023/03/16 17:16:39;;;;;;;11.10;4.50;;;;;;;17.99;62.27;99551.19;10323195;28;97586;-74
2023/03/16 17:21:42;;;;;;;12.55;5.00;;;;;;;17.98;62.44;99559.31;10337248;28;96634;-74
2023/03/16 17:26:48;;;;;;;13.02;4.90;;;;;;;17.96;61.89;99553.25;10337707;28;96615;-73
2023/03/16 17:31:53;;;;;;;18.60;4.70;;;;;;;18.03;62.07;99551.78;10320555;28;96881;-74
2023/03/16 17:36:56;;;;;;;16.33;5.60;;;;;;;18.00;62.14;99550.19;10295995;28;96591;-74
2023/03/16 17:42:02;;;;;;;12.88;5.00;;;;;;;18.03;62.24;99549.97;10294516;28;96580;-74
2023/03/16 17:47:13;;;;;;;13.18;4.50;;;;;;;17.90;62.82;99543.94;10312124;28;96662;-74
2023/03/16 17:52:19;;;;;;;8.25;4.28;;;;;;;17.79;62.30;99549.28;10293677;28;96887;-74
2023/03/16 17:57:26;;;;;;;11.45;4.53;;;;;;;17.70;62.85;99555.34;10294688;28;96878;-74
2023/03/16 18:02:43;;;;;;;12.43;4.35;;;;;;;17.58;63.20;99553.66;10294840;28;96760;-74
2023/03/16 18:07:47;;;;;;;14.98;4.63;;;;;;;17.44;63.55;99567.16;10295329;28;97066;-74
2023/03/16 18:12:57;;;;;;;12.63;5.03;;;;;;;17.42;64.11;99577.06;10294639;28;96662;-74
2023/03/16 18:18:02;;;;;;;12.18;4.55;;;;;;;17.28;63.89;99587.94;10313423;28;96620;-74
2023/03/16 18:23:15;;;;;;;16.35;5.07;;;;;;;17.23;64.49;99584.78;10317016;28;96750;-74
2023/03/16 18:28:20;;;;;;;14.05;5.20;;;;;;;17.17;64.77;99587.09;10293590;28;96532;-74
2023/03/16 18:33:28;;;;;;;13.70;4.85;;;;;;;17.07;64.76;99600.22;10293251;28;96878;-74
2023/03/16 18:38:33;;;;;;;12.35;4.93;;;;;;;16.98;64.66;99607.09;10294175;28;96516;-74
2023/03/16 18:43:37;;;;;;;16.70;4.07;;;;;;;16.85;65.45;99592.19;10295270;28;96736;-74
2023/03/16 18:48:42;;;;;;;14.93;4.57;;;;;;;16.84;65.64;99599.31;10334673;28;96532;-74
2023/03/16 18:53:45;;;;;;;9.98;3.00;;;;;;;16.78;65.57;99604.25;10334371;28;96693;-74
2023/03/16 18:58:49;;;;;;;7.35;2.92;;;;;;;16.75;65.59;99600.03;10301763;28;96731;-74
2023/03/16 19:03:55;;;;;;;13.80;3.50;;;;;;;16.74;65.55;99616.09;10292452;28;96949;-74
2023/03/16 19:09:05;;;;;;;13.10;3.80;;;;;;;16.68;65.70;99592.63;10293748;28;97292;-74
2023/03/16 19:14:15;;;;;;;9.23;3.60;;;;;;;16.74;64.60;99595.66;10293390;28;96744;-73
2023/03/16 19:19:21;;;;;;;14.80;4.20;;;;;;;16.82;64.57;99605.72;10321895;28;96878;-74
2023/03/16 19:24:27;;;;;;;12.90;4.93;;;;;;;16.84;64.30;99601.97;10332588;28;96970;-74
2023/03/16 19:29:33;;;;;;;11.27;3.97;;;;;;;16.91;63.93;99632.44;10332447;28;96633;-74
2023/03/16 19:34:38;;;;;;;12.48;4.47;;;;;;;16.90;64.80;99629.88;10333345;28;96976;-74
2023/03/16 19:39:42;;;;;;;8.63;3.75;;;;;;;16.85;64.89;99634.72;10333284;28;96581;-74
2023/03/16 19:44:49;;;;;;;10.88;4.95;;;;;;;16.81;65.61;99651.84;10332448;28;96700;-74
2023/03/16 19:49:54;;;;;;;10.70;4.65;;;;;;;16.49;67.81;99650.72;10332500;28;96665;-75
2023/03/16 19:54:57;;;;;;;9.48;5.10;;;;;;;16.32;68.13;99657.25;10332729;28;96827;-74
2023/03/16 20:00:01;;;;;;;9.25;4.97;;;;;;;16.25;68.75;99650.66;10333019;28;96804;-74
2023/03/16 20:05:07;;;;;;;10.63;5.10;;;;;;;16.19;69.64;99664.38;10314430;28;96760;-74
2023/03/16 20:10:16;;;;;;;11.32;4.55;;;;;;;16.10;70.63;99670.34;10291563;28;96992;-74
2023/03/16 20:15:22;;;;;;;5.13;3.13;;;;;;;15.89;70.64;99674.53;10291794;28;97163;-76
2023/03/16 20:20:29;;;;;;;7.82;3.20;;;;;;;15.86;71.98;99682.69;10317355;28;97259;-75
2023/03/16 20:25:34;;;;;;;10.48;3.90;;;;;;;15.90;71.89;99692.13;10298224;28;96710;-75
2023/03/16 20:30:36;;;;;;;;;;;;;;;15.69;75.25;99691.84;10298569;28;96762;-75
2023/03/16 20:35:41;;;;;;;9.00;4.25;;;;;;;15.63;74.18;99707.31;10298097;28;97514;-75
2023/03/16 20:40:46;;;;;;;;;;;;;;;15.47;76.90;99718.13;10298923;28;97449;-76
2023/03/16 20:45:49;;;;;;;5.95;4.05;;;;;;;15.49;75.49;99710.91;10298034;28;97098;-75
2023/03/16 20:50:55;;;;;;;5.47;3.53;;;;;;;15.60;75.17;99711.03;10327752;28;96598;-75
2023/03/16 20:55:59;;;;;;;8.23;4.45;;;;;;;15.64;75.85;99701.06;10337380;28;96555;-75
2023/03/16 21:01:02;;;;;;;9.30;4.40;;;;;;;15.65;76.28;99711.56;10337721;28;97971;-76
2023/03/16 21:06:22;;;;;;;8.02;4.28;;;;;;;15.62;76.81;99732.13;10336956;28;97071;-75
2023/03/16 21:11:27;;;;;;;7.65;4.55;;;;;;;15.69;77.04;99728.97;10337083;28;96693;-75
2023/03/16 21:16:31;;;;;;;7.60;4.00;;;;;;;15.68;77.12;99729.91;10337704;28;97513;-76
2023/03/16 21:21:36;;;;;;;7.10;4.22;;;;;;;15.61;77.55;99718.00;10337356;28;97009;-76
2023/03/16 21:26:41;;;;;;;9.75;5.70;;;;;;;15.60;77.74;99723.44;10336751;28;96616;-76
2023/03/16 21:31:45;;;;;;;15.70;11.85;;;;;;;15.69;77.89;99731.63;10304959;28;96765;-76
2023/03/16 21:36:50;;;;;;;3.75;1.85;;;;;;;15.48;77.80;99725.13;10295578;28;97381;-76
2023/03/16 21:41:53;;;;;;;4.70;2.00;;;;;;;15.45;78.14;99746.56;10295990;28;96761;-76
2023/03/16 21:46:57;;;;;;;5.20;2.40;;;;;;;15.33;78.31;99757.97;10303011;28;96773;-76
2023/03/16 21:52:02;;;;;;;4.53;1.70;;;;;;;15.08;77.64;99744.59;10317438;28;96658;-76
2023/03/16 21:57:10;;;;;;;;;;;;;;;15.00;79.01;99749.56;10335678;28;96856;-75
2023/03/16 22:02:20;;;;;;;5.63;1.88;;;;;;;15.19;77.54;99746.56;10332979;28;96543;-75
2023/03/16 22:07:25;;;;;;;9.80;1.70;;;;;;;15.17;77.73;99743.16;10294874;28;96551;-75
2023/03/16 22:12:28;;;;;;;4.72;1.88;;;;;;;15.30;77.43;99741.44;10294493;28;96646;-75
2023/03/16 22:17:32;;;;;;;6.05;2.60;;;;;;;15.39;77.66;99751.44;10294734;28;96563;-75
2023/03/16 22:22:37;;;;;;;5.65;1.85;;;;;;;15.43;77.56;99745.81;10304905;28;97012;-75
2023/03/16 22:27:40;;;;;;;16.98;8.25;;;;;;;15.38;77.38;99760.31;10294278;28;96724;-75
2023/03/16 22:32:45;;;;;;;76.10;36.05;;;;;;;15.23;78.10;99754.22;10294887;28;96594;-75
2023/03/16 22:37:49;;;;;;;;;;;;;;;14.97;78.81;99749.78;10293938;28;96648;-75
2023/03/16 22:42:55;;;;;;;9.68;2.92;;;;;;;14.92;77.52;99745.72;10293504;28;96677;-75
2023/03/16 22:48:01;;;;;;;9.77;2.95;;;;;;;14.88;77.49;99762.75;10311433;28;96764;-75
2023/03/16 22:53:08;;;;;;;7.13;2.72;;;;;;;14.88;77.42;99766.28;10332809;28;96582;-75
2023/03/16 22:58:17;;;;;;;10.00;3.60;;;;;;;14.86;77.46;99773.47;10293256;28;96611;-75
2023/03/16 23:03:22;;;;;;;6.07;2.40;;;;;;;14.77;77.83;99777.56;10292995;28;96917;-75
2023/03/16 23:08:26;;;;;;;9.48;2.65;;;;;;;14.68;78.07;99783.44;10293109;28;97010;-75
2023/03/16 23:13:30;;;;;;;6.63;2.20;;;;;;;14.64;78.02;99781.09;10293441;28;97348;-75
2023/03/16 23:18:33;;;;;;;7.43;2.85;;;;;;;14.64;77.67;99778.44;10291866;28;96551;-75
2023/03/16 23:23:38;;;;;;;7.63;2.08;;;;;;;14.62;77.64;99790.91;10324454;28;96795;-75
2023/03/16 23:28:42;;;;;;;7.97;2.50;;;;;;;14.59;77.62;99796.41;10318535;28;96756;-75
2023/03/16 23:33:46;;;;;;;10.43;3.10;;;;;;;14.64;77.73;99794.31;10292142;28;96700;-75
2023/03/16 23:38:50;;;;;;;11.43;3.37;;;;;;;14.46;78.18;99798.97;10291170;28;96672;-75
2023/03/16 23:43:54;;;;;;;10.82;2.38;;;;;;;14.42;78.08;99792.16;10292021;28;96802;-75
2023/03/16 23:48:59;;;;;;;8.48;3.17;;;;;;;14.34;78.06;99793.59;10298534;28;96781;-75
2023/03/16 23:54:13;;;;;;;6.70;2.63;;;;;;;14.36;77.71;99799.66;10332657;28;96584;-75
2023/03/16 23:59:18;;;;;;;7.83;2.67;;;;;;;14.27;77.90;99779.91;10332694;28;97119;-75
